createdAt,value
2022-11-22T00:00:43.189Z,21.10
2022-11-22T00:03:10.439Z,15.60
2022-11-22T00:05:38.123Z,24.10
2022-11-22T00:08:05.652Z,12.77
2022-11-22T00:10:32.924Z,27.37
2022-11-22T00:13:00.241Z,17.50
2022-11-22T00:15:27.233Z,22.63
2022-11-22T00:17:54.153Z,20.07
2022-11-22T00:20:22.301Z,22.33
2022-11-22T00:22:49.271Z,25.80
2022-11-22T00:25:16.405Z,16.57
2022-11-22T00:27:43.799Z,21.07
2022-11-22T00:30:11.227Z,12.17
2022-11-22T00:32:38.170Z,20.30
2022-11-22T00:35:05.832Z,19.43
2022-11-22T00:37:33.231Z,30.40
2022-11-22T00:40:00.232Z,19.17
2022-11-22T00:42:27.183Z,21.90
2022-11-22T00:44:54.092Z,16.57
2022-11-22T00:47:21.051Z,17.40
2022-11-22T00:49:48.065Z,21.33
2022-11-22T00:52:15.139Z,12.17
2022-11-22T00:54:42.296Z,20.47
2022-11-22T00:57:09.224Z,18.13
2022-11-22T00:59:36.127Z,17.10
2022-11-22T01:02:03.060Z,20.77
2022-11-22T01:04:30.011Z,25.20
2022-11-22T01:06:56.955Z,19.87
2022-11-22T01:09:24.897Z,18.90
2022-11-22T01:11:52.373Z,19.83
2022-11-22T01:14:19.664Z,21.57
2022-11-22T01:16:47.733Z,23.47
2022-11-22T01:19:15.385Z,19.03
2022-11-22T01:21:42.506Z,15.30
2022-11-22T01:24:10.104Z,18.10
2022-11-22T01:26:37.256Z,16.27
2022-11-22T01:29:04.778Z,17.13
2022-11-22T01:31:31.837Z,22.40
2022-11-22T01:33:59.508Z,19.47
2022-11-22T01:36:27.583Z,23.27
2022-11-22T01:38:55.274Z,18.07
2022-11-22T01:41:22.867Z,15.87
2022-11-22T01:43:49.897Z,14.17
2022-11-22T01:46:30.536Z,16.93
2022-11-22T01:49:29.351Z,15.93
2022-11-22T01:52:06.340Z,13.80
2022-11-22T01:54:38.822Z,14.03
2022-11-22T01:57:13.925Z,16.30
2022-11-22T01:59:49.215Z,17.47
2022-11-22T02:02:16.292Z,17.70
2022-11-22T02:04:45.596Z,20.27
2022-11-22T02:07:25.140Z,15.17
2022-11-22T02:09:53.355Z,12.80
2022-11-22T02:12:27.953Z,15.40
2022-11-22T02:14:56.090Z,16.47
2022-11-22T02:17:26.757Z,18.60
2022-11-22T02:19:54.648Z,15.37
2022-11-22T02:22:52.343Z,15.93
2022-11-22T02:25:27.211Z,13.97
2022-11-22T02:27:54.174Z,10.93
2022-11-22T02:30:21.847Z,14.97
2022-11-22T02:32:48.809Z,10.30
2022-11-22T02:35:22.844Z,14.73
2022-11-22T02:37:56.697Z,10.83
2022-11-22T02:40:24.593Z,11.23
2022-11-22T02:43:36.020Z,14.70
2022-11-22T02:46:09.515Z,11.93
2022-11-22T02:48:42.555Z,10.13
2022-11-22T02:51:09.837Z,11.43
2022-11-22T02:53:36.963Z,7.23
2022-11-22T02:56:04.090Z,8.73
2022-11-22T02:58:31.022Z,11.47
2022-11-22T03:00:58.006Z,10.80
2022-11-22T03:03:24.991Z,14.57
2022-11-22T03:05:51.926Z,13.43
2022-11-22T03:08:18.863Z,12.03
2022-11-22T03:10:45.802Z,11.40
2022-11-22T03:13:12.718Z,10.83
2022-11-22T03:15:39.681Z,11.43
2022-11-22T03:18:06.638Z,13.30
2022-11-22T03:20:34.127Z,15.23
2022-11-22T03:23:01.543Z,14.53
2022-11-22T03:25:28.974Z,14.83
2022-11-22T03:27:56.222Z,9.80
2022-11-22T03:30:23.136Z,17.77
2022-11-22T03:32:50.048Z,11.93
2022-11-22T03:35:17.043Z,13.80
2022-11-22T03:37:43.940Z,15.37
2022-11-22T03:40:11.236Z,17.30
2022-11-22T03:42:38.181Z,14.80
2022-11-22T03:45:06.368Z,15.50
2022-11-22T03:47:33.281Z,12.60
2022-11-22T03:50:00.238Z,11.37
2022-11-22T03:52:27.232Z,19.33
2022-11-22T03:54:54.132Z,13.10
2022-11-22T03:57:21.049Z,9.90
2022-11-22T03:59:48.027Z,15.27
2022-11-22T04:02:15.085Z,12.03
2022-11-22T04:04:42.063Z,16.63
2022-11-22T04:07:09.002Z,12.33
2022-11-22T04:09:35.959Z,13.80
2022-11-22T04:12:03.105Z,11.70
2022-11-22T04:14:48.443Z,14.07
2022-11-22T04:17:35.544Z,11.30
2022-11-22T04:20:21.038Z,9.57
2022-11-22T04:23:13.573Z,16.17
2022-11-22T04:25:43.528Z,14.43
2022-11-22T04:28:12.199Z,13.53
2022-11-22T04:30:57.898Z,7.97
2022-11-22T04:33:25.631Z,13.20
2022-11-22T04:35:53.061Z,13.33
2022-11-22T04:38:20.877Z,10.00
2022-11-22T04:40:48.119Z,13.33
2022-11-22T04:43:42.988Z,9.93
2022-11-22T04:46:10.577Z,15.97
2022-11-22T04:48:37.775Z,18.33
2022-11-22T04:51:25.235Z,12.67
2022-11-22T04:53:52.631Z,13.53
2022-11-22T04:56:19.845Z,11.70
2022-11-22T04:58:46.796Z,12.67
2022-11-22T05:01:13.782Z,12.97
2022-11-22T05:03:40.766Z,12.53
2022-11-22T05:06:07.706Z,10.10
2022-11-22T05:08:34.661Z,11.43
2022-11-22T05:11:01.631Z,10.00
2022-11-22T05:13:38.872Z,13.67
2022-11-22T05:16:09.071Z,13.60
2022-11-22T05:18:36.482Z,11.30
2022-11-22T05:21:08.916Z,9.30
2022-11-22T05:23:54.599Z,6.73
2022-11-22T05:26:33.911Z,9.60
2022-11-22T05:29:10.002Z,11.80
2022-11-22T05:31:39.785Z,6.53
2022-11-22T05:34:07.294Z,9.50
2022-11-22T05:36:35.373Z,14.73
2022-11-22T05:39:03.005Z,10.73
2022-11-22T05:41:30.071Z,8.33
2022-11-22T05:43:57.478Z,14.07
2022-11-22T05:46:30.181Z,10.97
2022-11-22T05:48:58.506Z,15.50
2022-11-22T05:51:34.608Z,13.17
2022-11-22T05:54:02.748Z,11.30
2022-11-22T05:56:29.815Z,11.40
2022-11-22T05:58:56.783Z,8.80
2022-11-22T06:01:24.731Z,9.90
2022-11-22T06:03:52.377Z,11.80
2022-11-22T06:06:19.889Z,10.90
2022-11-22T06:08:48.632Z,13.20
2022-11-22T06:11:25.763Z,11.13
2022-11-22T06:13:59.572Z,7.97
2022-11-22T06:16:27.474Z,10.23
2022-11-22T06:18:54.739Z,10.47
2022-11-22T06:21:24.706Z,13.30
2022-11-22T06:23:53.437Z,14.30
2022-11-22T06:26:21.570Z,12.30
2022-11-22T06:28:49.801Z,10.70
2022-11-22T06:31:20.968Z,9.17
2022-11-22T06:33:48.547Z,10.70
2022-11-22T06:36:19.979Z,14.00
2022-11-22T06:38:47.637Z,8.03
2022-11-22T06:41:19.269Z,9.13
2022-11-22T06:43:49.358Z,9.77
2022-11-22T06:46:22.962Z,8.03
2022-11-22T06:48:50.406Z,11.23
2022-11-22T06:51:27.609Z,13.20
2022-11-22T06:53:56.001Z,10.97
2022-11-22T06:56:30.890Z,10.63
2022-11-22T06:59:02.012Z,10.27
2022-11-22T07:01:29.943Z,8.30
2022-11-22T07:03:59.148Z,6.73
2022-11-22T07:06:33.527Z,9.50
2022-11-22T07:09:02.480Z,9.40
2022-11-22T07:11:32.159Z,12.10
2022-11-22T07:14:06.976Z,13.80
2022-11-22T07:16:37.414Z,10.97
2022-11-22T07:19:05.701Z,6.87
2022-11-22T07:21:32.771Z,12.27
2022-11-22T07:23:59.784Z,11.20
2022-11-22T07:26:27.851Z,8.30
2022-11-22T07:28:54.944Z,7.17
2022-11-22T07:31:21.935Z,12.70
2022-11-22T07:33:49.232Z,8.40
2022-11-22T07:36:20.155Z,8.80
2022-11-22T07:38:50.347Z,7.67
2022-11-22T07:41:19.407Z,8.63
2022-11-22T07:43:47.225Z,8.33
2022-11-22T07:46:31.262Z,7.70
2022-11-22T07:49:00.057Z,8.77
2022-11-22T07:51:27.536Z,11.50
2022-11-22T07:53:56.452Z,8.37
2022-11-22T07:56:24.250Z,13.00
2022-11-22T07:58:51.226Z,9.00
2022-11-22T08:01:19.941Z,8.03
2022-11-22T08:03:46.966Z,10.00
2022-11-22T08:06:15.025Z,6.83
2022-11-22T08:08:42.448Z,9.23
2022-11-22T08:11:10.163Z,7.93
2022-11-22T08:13:40.473Z,5.40
2022-11-22T08:16:11.807Z,10.53
2022-11-22T08:18:39.600Z,8.00
2022-11-22T08:21:12.533Z,6.37
2022-11-22T08:23:40.540Z,5.33
2022-11-22T08:26:12.669Z,8.30
2022-11-22T08:28:40.978Z,8.07
2022-11-22T08:31:12.827Z,10.87
2022-11-22T08:33:40.839Z,8.97
2022-11-22T08:36:08.448Z,6.87
2022-11-22T08:38:36.154Z,10.67
2022-11-22T08:41:04.191Z,6.50
2022-11-22T08:43:31.982Z,10.23
2022-11-22T08:46:00.106Z,8.83
2022-11-22T08:48:28.685Z,15.17
2022-11-22T08:50:58.786Z,6.23
2022-11-22T08:53:26.674Z,10.23
2022-11-22T08:55:54.818Z,10.63
2022-11-22T08:58:22.607Z,7.03
2022-11-22T09:00:49.530Z,8.13
2022-11-22T09:03:16.454Z,12.07
2022-11-22T09:08:34.366Z,6.50
2022-11-22T09:11:07.030Z,7.73
2022-11-22T09:13:34.064Z,10.13
2022-11-22T09:16:07.495Z,11.63
2022-11-22T09:18:35.437Z,10.40
2022-11-22T09:21:11.206Z,7.17
2022-11-22T09:23:38.377Z,12.67
2022-11-22T09:26:08.983Z,11.17
2022-11-22T09:28:36.485Z,7.53
2022-11-22T09:31:13.706Z,7.33
2022-11-22T09:33:42.242Z,10.10
2022-11-22T09:36:18.871Z,9.23
2022-11-22T09:38:46.243Z,8.30
2022-11-22T09:41:55.688Z,6.87
2022-11-22T09:44:50.366Z,8.67
2022-11-22T09:47:35.733Z,8.60
2022-11-22T09:50:26.519Z,7.20
2022-11-22T09:53:17.109Z,8.73
2022-11-22T09:56:09.847Z,5.07
2022-11-22T09:58:53.352Z,5.67
2022-11-22T10:01:41.068Z,9.93
2022-11-22T10:04:21.518Z,5.87
2022-11-22T10:06:55.937Z,4.43
2022-11-22T10:09:46.887Z,6.77
2022-11-22T10:12:36.154Z,3.77
2022-11-22T10:15:11.524Z,3.30
2022-11-22T10:18:09.485Z,9.50
2022-11-22T10:20:47.247Z,6.13
2022-11-22T10:23:20.626Z,4.63
2022-11-22T10:26:21.865Z,6.40
2022-11-22T10:29:05.394Z,6.17
2022-11-22T10:31:44.282Z,4.50
2022-11-22T10:34:38.221Z,2.70
2022-11-22T10:37:42.324Z,3.13
2022-11-22T10:40:21.460Z,3.37
2022-11-22T10:43:26.526Z,1.83
2022-11-22T10:46:08.425Z,3.20
2022-11-22T10:48:48.612Z,5.57
2022-11-22T10:51:18.602Z,2.93
2022-11-22T10:54:04.141Z,3.23
2022-11-22T10:56:55.064Z,2.73
2022-11-22T10:59:36.750Z,2.70
2022-11-22T11:02:36.094Z,3.70
2022-11-22T11:05:09.052Z,1.10
2022-11-22T11:07:46.250Z,9.47
2022-11-22T11:10:32.591Z,1.90
2022-11-22T11:13:26.374Z,4.90
2022-11-22T11:16:00.250Z,5.10
2022-11-22T11:18:41.802Z,3.03
2022-11-22T11:21:14.676Z,2.00
2022-11-22T11:23:42.824Z,2.30
2022-11-22T11:26:24.152Z,3.40
2022-11-22T11:28:51.386Z,4.67
2022-11-22T11:31:19.170Z,4.87
2022-11-22T11:33:46.981Z,3.60
2022-11-22T11:36:22.194Z,4.33
2022-11-22T11:38:57.440Z,1.87
2022-11-22T11:41:40.245Z,4.83
2022-11-22T11:44:32.337Z,2.80
2022-11-22T11:47:02.520Z,6.10
2022-11-22T11:49:33.105Z,3.10
2022-11-22T11:52:04.202Z,5.87
2022-11-22T11:54:40.759Z,3.27
2022-11-22T11:57:23.945Z,1.43
2022-11-22T11:59:52.613Z,3.20
2022-11-22T12:02:39.997Z,4.50
2022-11-22T12:05:14.198Z,3.70
2022-11-22T12:07:44.877Z,5.90
2022-11-22T12:10:40.639Z,3.60
2022-11-22T12:14:12.445Z,3.60
2022-11-22T12:16:40.315Z,3.53
2022-11-22T12:20:02.308Z,4.63
2022-11-22T12:23:01.265Z,5.70
2022-11-22T12:25:39.247Z,6.30
2022-11-22T12:28:20.769Z,8.00
2022-11-22T12:31:16.344Z,5.60
2022-11-22T12:33:47.919Z,7.73
2022-11-22T12:36:54.249Z,4.90
2022-11-22T12:39:27.219Z,3.93
2022-11-22T12:42:01.500Z,6.20
2022-11-22T12:44:35.016Z,6.33
2022-11-22T12:47:13.298Z,5.03
2022-11-22T12:50:07.145Z,6.13
2022-11-22T12:52:47.799Z,10.57
2022-11-22T12:55:31.586Z,5.63
2022-11-22T12:58:32.760Z,5.40
2022-11-22T13:01:24.579Z,4.17
2022-11-22T13:04:01.124Z,8.83
2022-11-22T13:06:50.167Z,3.93
2022-11-22T13:09:36.493Z,4.90
2022-11-22T13:12:09.903Z,5.63
2022-11-22T13:14:47.656Z,5.77
2022-11-22T13:17:17.381Z,5.40
2022-11-22T13:19:50.897Z,5.67
2022-11-22T13:23:01.582Z,5.40
2022-11-22T13:25:48.698Z,6.60
2022-11-22T13:28:30.219Z,4.87
2022-11-22T13:31:04.406Z,2.77
2022-11-22T13:33:32.162Z,5.97
2022-11-22T13:36:29.919Z,4.97
2022-11-22T13:39:09.503Z,2.97
2022-11-22T13:41:59.866Z,6.47
2022-11-22T13:44:33.026Z,3.13
2022-11-22T13:47:04.611Z,4.83
2022-11-22T13:49:48.826Z,2.57
2022-11-22T13:52:16.197Z,4.30
2022-11-22T13:54:56.771Z,5.03
2022-11-22T13:57:40.671Z,4.70
2022-11-22T14:00:16.045Z,4.53
2022-11-22T14:03:21.475Z,3.77
2022-11-22T14:05:51.393Z,2.97
2022-11-22T14:08:36.428Z,5.13
2022-11-22T14:11:37.663Z,7.47
2022-11-22T14:14:46.488Z,5.60
2022-11-22T14:17:41.574Z,4.47
2022-11-22T14:20:27.597Z,5.27
2022-11-22T14:23:30.716Z,4.23
2022-11-22T14:26:10.558Z,5.07
2022-11-22T14:29:05.311Z,3.10
2022-11-22T14:31:35.107Z,4.07
2022-11-22T14:34:27.393Z,5.27
2022-11-22T14:37:13.212Z,4.50
2022-11-22T14:39:50.159Z,3.73
2022-11-22T14:42:35.724Z,3.77
2022-11-22T14:45:43.797Z,3.70
2022-11-22T14:48:30.468Z,3.73
2022-11-22T14:51:20.170Z,4.97
2022-11-22T14:54:00.301Z,4.70
2022-11-22T14:56:34.442Z,5.70
2022-11-22T14:59:01.275Z,6.33
2022-11-22T15:01:48.085Z,5.57
2022-11-22T15:09:10.684Z,8.60
2022-11-22T15:09:15.085Z,6.03
2022-11-22T15:11:21.489Z,3.60
2022-11-22T15:14:13.546Z,4.93
2022-11-22T15:57:30.196Z,12.87
2022-11-22T15:59:57.667Z,13.97
2022-11-22T16:02:32.524Z,12.80
2022-11-22T16:06:07.808Z,20.07
2022-11-22T16:07:56.934Z,14.13
2022-11-22T16:10:42.527Z,13.80
2022-11-22T16:13:21.613Z,14.77
2022-11-22T16:16:11.695Z,17.53
2022-11-22T16:18:42.888Z,19.27
2022-11-22T16:21:15.401Z,19.60
2022-11-22T16:23:46.920Z,10.83
2022-11-22T16:27:06.087Z,9.50
2022-11-22T16:29:36.971Z,14.70
2022-11-22T16:32:15.071Z,18.97
2022-11-22T16:34:43.447Z,13.93
2022-11-22T16:37:37.693Z,15.83
2022-11-22T16:40:06.634Z,20.97
2022-11-22T16:42:35.455Z,17.63
2022-11-22T16:45:04.252Z,12.00
2022-11-22T16:47:31.597Z,12.97
2022-11-22T16:49:58.547Z,10.77
2022-11-22T16:52:25.582Z,14.87
2022-11-22T16:54:52.487Z,14.43
2022-11-22T16:57:19.398Z,11.23
2022-11-22T16:59:46.382Z,14.80
2022-11-22T17:02:15.806Z,15.57
2022-11-22T17:04:45.832Z,17.50
2022-11-22T17:07:14.739Z,13.90
2022-11-22T17:09:42.167Z,14.13
2022-11-22T17:12:32.191Z,13.23
2022-11-22T17:15:00.799Z,15.77
2022-11-22T17:17:27.743Z,12.13
2022-11-22T17:19:54.689Z,12.20
2022-11-22T17:22:21.732Z,12.40
2022-11-22T17:24:48.902Z,13.80
2022-11-22T17:27:15.922Z,10.83
2022-11-22T17:29:50.421Z,13.93
2022-11-22T17:32:18.265Z,13.90
2022-11-22T17:34:45.290Z,11.03
2022-11-22T17:37:13.058Z,23.03
2022-11-22T17:39:42.804Z,13.57
2022-11-22T17:42:09.751Z,12.33
2022-11-22T17:44:36.760Z,12.77
2022-11-22T17:47:04.038Z,11.80
2022-11-22T17:49:31.374Z,12.47
2022-11-22T17:51:58.465Z,10.13
2022-11-22T17:54:25.376Z,11.63
2022-11-22T17:56:52.350Z,14.17
2022-11-22T17:59:19.315Z,15.77
2022-11-22T18:01:46.299Z,13.43
2022-11-22T18:04:14.707Z,15.57
2022-11-22T18:06:41.676Z,15.60
2022-11-22T18:09:08.833Z,12.00
2022-11-22T18:11:35.765Z,12.03
2022-11-22T18:14:02.654Z,15.40
2022-11-22T18:16:30.121Z,13.93
2022-11-22T18:18:58.541Z,12.03
2022-11-22T18:21:29.047Z,15.33
2022-11-22T18:23:58.349Z,14.40
2022-11-22T18:26:41.620Z,11.93
2022-11-22T18:31:57.348Z,18.73
2022-11-22T18:34:25.065Z,14.57
2022-11-22T18:36:55.686Z,12.47
2022-11-22T18:39:23.319Z,13.07
2022-11-22T18:41:50.316Z,12.33
2022-11-22T18:44:17.342Z,15.40
2022-11-22T18:46:44.362Z,11.60
2022-11-22T18:49:11.509Z,14.57
2022-11-22T18:51:38.587Z,14.43
2022-11-22T18:54:05.748Z,15.13
2022-11-22T18:56:37.802Z,12.30
2022-11-22T18:59:06.324Z,14.67
2022-11-22T19:01:37.290Z,14.10
2022-11-22T19:04:04.907Z,13.60
2022-11-22T19:06:32.132Z,8.07
2022-11-22T19:08:59.287Z,11.93
2022-11-22T19:11:29.293Z,10.87
2022-11-22T19:13:57.086Z,13.97
2022-11-22T19:16:25.828Z,11.83
2022-11-22T19:18:52.879Z,12.63
2022-11-22T19:21:22.900Z,12.97
2022-11-22T19:23:50.484Z,11.60
2022-11-22T19:26:23.872Z,13.43
2022-11-22T19:28:55.638Z,13.80
2022-11-22T19:31:31.450Z,13.57
2022-11-22T19:33:59.768Z,12.57
2022-11-22T19:36:33.253Z,16.27
2022-11-22T19:39:05.680Z,14.73
2022-11-22T19:41:33.292Z,13.80
2022-11-22T19:44:00.596Z,12.53
2022-11-22T19:46:28.193Z,13.77
2022-11-22T19:48:58.059Z,15.07
2022-11-22T19:51:27.532Z,14.83
2022-11-22T19:53:59.753Z,20.07
2022-11-22T19:56:30.629Z,9.53
2022-11-22T19:58:59.960Z,14.37
2022-11-22T20:01:30.469Z,13.20
2022-11-22T20:04:00.956Z,14.03
2022-11-22T20:06:29.116Z,11.60
2022-11-22T20:09:10.388Z,16.20
2022-11-22T20:11:39.714Z,15.87
2022-11-22T20:14:07.618Z,20.23
2022-11-22T20:16:41.717Z,17.57
2022-11-22T20:19:10.629Z,12.83
2022-11-22T20:21:39.099Z,16.17
2022-11-22T20:24:07.044Z,15.27
2022-11-22T20:26:34.801Z,21.97
2022-11-22T20:29:07.607Z,10.97
2022-11-22T20:31:37.892Z,16.87
2022-11-22T20:34:05.567Z,14.47
2022-11-22T20:36:34.743Z,13.47
2022-11-22T20:39:05.522Z,18.87
2022-11-22T20:41:36.446Z,8.23
2022-11-22T20:44:03.792Z,15.70
2022-11-22T20:46:30.772Z,12.20
2022-11-22T20:48:58.254Z,17.57
2022-11-22T20:51:28.705Z,14.83
2022-11-22T20:53:57.086Z,14.47
2022-11-22T20:56:24.866Z,19.47
2022-11-22T20:58:52.506Z,14.77
2022-11-22T21:01:26.189Z,12.87
2022-11-22T21:03:54.469Z,14.60
2022-11-22T21:06:24.266Z,13.03
2022-11-22T21:08:51.697Z,18.50
2022-11-22T21:11:22.712Z,14.63
2022-11-22T21:13:51.242Z,12.83
2022-11-22T21:16:28.105Z,14.73
2022-11-22T21:18:58.576Z,14.10
2022-11-22T21:21:26.403Z,16.70
2022-11-22T21:23:56.285Z,14.40
2022-11-22T21:26:24.346Z,13.57
2022-11-22T21:28:52.665Z,10.30
2022-11-22T21:31:21.051Z,16.53
2022-11-22T21:33:48.832Z,12.27
2022-11-22T21:36:16.100Z,13.00
2022-11-22T21:38:43.172Z,11.60
2022-11-22T21:44:05.637Z,15.93
2022-11-22T21:46:32.562Z,15.03
2022-11-22T21:48:59.595Z,16.23
2022-11-22T21:51:26.773Z,11.10
2022-11-22T21:54:01.741Z,15.47
2022-11-22T21:56:29.252Z,9.93
2022-11-22T21:58:56.432Z,14.00
2022-11-22T22:01:23.980Z,9.77
2022-11-22T22:03:51.183Z,13.70
2022-11-22T22:06:18.668Z,10.43
2022-11-22T22:08:45.572Z,9.93
2022-11-22T22:11:12.820Z,10.47
2022-11-22T22:13:39.803Z,12.67
2022-11-22T22:16:07.331Z,13.30
2022-11-22T22:18:37.501Z,14.70
2022-11-22T22:21:10.351Z,16.07
2022-11-22T22:23:39.342Z,9.23
2022-11-22T22:26:15.819Z,13.53
2022-11-22T22:28:45.096Z,8.67
2022-11-22T22:31:22.311Z,11.43
2022-11-22T22:33:56.577Z,11.13
2022-11-22T22:36:25.940Z,13.07
2022-11-22T22:38:53.934Z,10.20
2022-11-22T22:41:20.885Z,13.07
2022-11-22T22:43:49.187Z,13.37
2022-11-22T22:46:22.743Z,11.50
2022-11-22T22:48:50.819Z,14.13
2022-11-22T22:51:21.078Z,8.97
2022-11-22T22:53:48.880Z,16.23
2022-11-22T22:56:18.987Z,10.07
2022-11-22T22:58:46.307Z,8.30
2022-11-22T23:01:19.918Z,8.20
2022-11-22T23:03:57.334Z,10.20
2022-11-22T23:06:30.032Z,4.83
2022-11-22T23:08:57.922Z,8.87
2022-11-22T23:11:48.996Z,10.47
2022-11-22T23:14:23.539Z,8.67
2022-11-22T23:16:55.989Z,7.97
2022-11-22T23:19:24.710Z,7.00
2022-11-22T23:21:51.804Z,13.37
2022-11-22T23:24:18.906Z,15.00
2022-11-22T23:26:45.933Z,11.27
2022-11-22T23:29:13.109Z,10.27
2022-11-22T23:31:40.116Z,10.73
2022-11-22T23:34:07.139Z,10.20
2022-11-22T23:36:40.226Z,15.20
2022-11-22T23:39:07.960Z,14.93
2022-11-22T23:41:35.028Z,14.90
2022-11-22T23:44:02.029Z,16.60
2022-11-22T23:46:29.091Z,13.70
2022-11-22T23:48:59.604Z,17.83
2022-11-22T23:51:28.904Z,15.57
2022-11-22T23:54:02.096Z,18.17
2022-11-22T23:56:31.017Z,14.93
2022-11-22T23:59:01.867Z,14.23
